createdAt,value
2023-04-15T00:02:01.464Z,3.65
2023-04-15T00:07:04.308Z,6.82
2023-04-15T00:12:07.113Z,6.55
2023-04-15T00:17:09.769Z,4.15
2023-04-15T00:22:12.956Z,2.88
2023-04-15T00:27:15.852Z,3.00
2023-04-15T00:32:18.543Z,3.70
2023-04-15T00:37:21.518Z,4.60
2023-04-15T00:42:25.312Z,3.10
2023-04-15T00:47:30.236Z,4.70
2023-04-15T00:52:33.101Z,3.70
2023-04-15T00:57:36.560Z,3.05
2023-04-15T01:02:39.670Z,4.82
2023-04-15T01:07:42.628Z,3.20
2023-04-15T01:12:45.530Z,3.97
2023-04-15T01:17:48.849Z,7.05
2023-04-15T01:22:51.729Z,6.03
2023-04-15T01:27:55.252Z,5.32
2023-04-15T01:32:57.865Z,4.88
2023-04-15T01:38:19.805Z,6.10
2023-04-15T01:43:22.552Z,4.70
2023-04-15T01:48:26.533Z,3.40
2023-04-15T01:53:30.347Z,3.20
2023-04-15T01:58:34.358Z,3.25
2023-04-15T02:03:39.872Z,6.40
2023-04-15T02:08:43.950Z,3.17
2023-04-15T02:13:48.082Z,2.97
2023-04-15T02:18:52.701Z,3.35
2023-04-15T02:23:56.826Z,3.65
2023-04-15T02:29:00.969Z,2.65
2023-04-15T02:34:04.952Z,3.03
2023-04-15T02:39:09.251Z,2.88
2023-04-15T02:44:13.334Z,2.70
2023-04-15T02:49:17.503Z,3.00
2023-04-15T02:54:26.409Z,2.75
2023-04-15T02:59:30.517Z,3.03
2023-04-15T03:04:34.519Z,4.43
2023-04-15T03:09:40.768Z,3.80
2023-04-15T03:14:44.756Z,3.10
2023-04-15T03:19:49.045Z,3.13
2023-04-15T03:24:53.010Z,2.90
2023-04-15T03:29:57.144Z,4.13
2023-04-15T03:35:03.312Z,5.03
2023-04-15T03:40:07.598Z,3.97
2023-04-15T03:45:11.915Z,3.78
2023-04-15T03:50:16.168Z,4.22
2023-04-15T03:55:20.942Z,5.13
2023-04-15T04:00:24.996Z,5.57
2023-04-15T04:05:29.089Z,4.03
2023-04-15T04:10:33.055Z,3.47
2023-04-15T04:15:37.221Z,2.03
2023-04-15T04:20:41.669Z,2.08
2023-04-15T04:25:45.498Z,2.25
2023-04-15T04:30:49.422Z,1.40
2023-04-15T04:35:53.327Z,1.60
2023-04-15T04:40:57.289Z,1.88
2023-04-15T04:46:01.748Z,1.90
2023-04-15T04:56:09.449Z,3.80
2023-04-15T05:01:13.517Z,2.20
2023-04-15T05:06:17.471Z,2.10
2023-04-15T05:11:21.438Z,3.30
2023-04-15T05:16:26.232Z,2.85
2023-04-15T05:21:30.231Z,2.80
2023-04-15T05:26:34.140Z,2.03
2023-04-15T05:31:38.516Z,2.70
2023-04-15T05:41:46.050Z,2.00
2023-04-15T05:46:49.790Z,3.17
2023-04-15T05:51:53.677Z,2.40
2023-04-15T05:56:58.642Z,3.03
2023-04-15T06:02:02.356Z,2.85
2023-04-15T06:07:06.511Z,4.47
2023-04-15T06:12:12.604Z,7.15
2023-04-15T06:17:18.734Z,8.10
2023-04-15T06:22:23.545Z,5.97
2023-04-15T06:27:27.460Z,1.88
2023-04-15T06:32:31.362Z,6.53
2023-04-15T06:37:35.190Z,2.80
2023-04-15T06:42:39.339Z,2.60
2023-04-15T06:47:43.859Z,7.15
2023-04-15T06:52:47.950Z,2.50
2023-04-15T06:57:51.868Z,2.28
2023-04-15T07:02:56.234Z,3.60
2023-04-15T07:13:04.809Z,2.85
2023-04-15T07:18:10.000Z,1.90
2023-04-15T07:23:13.721Z,2.75
2023-04-15T07:28:17.792Z,7.32
2023-04-15T07:33:21.853Z,5.03
2023-04-15T07:38:26.576Z,4.53
2023-04-15T07:43:30.425Z,4.70
2023-04-15T07:48:35.507Z,1.92
2023-04-15T07:53:40.156Z,3.25
2023-04-15T07:58:43.956Z,2.35
2023-04-15T08:03:48.942Z,1.85
2023-04-15T08:08:53.214Z,2.00
2023-04-15T08:13:57.055Z,2.17
2023-04-15T08:19:01.702Z,2.50
2023-04-15T08:24:06.539Z,2.13
2023-04-15T08:29:10.782Z,2.05
2023-04-15T08:34:14.761Z,1.85
2023-04-15T08:39:18.655Z,2.53
2023-04-15T08:44:23.779Z,2.08
2023-04-15T08:49:28.892Z,1.70
2023-04-15T08:54:32.902Z,2.58
2023-04-15T08:59:36.814Z,2.63
2023-04-15T09:04:40.795Z,2.42
2023-04-15T09:09:44.639Z,1.67
2023-04-15T09:14:49.731Z,2.00
2023-04-15T09:20:08.401Z,2.45
2023-04-15T09:25:17.133Z,2.67
2023-04-15T09:30:21.103Z,1.98
2023-04-15T09:35:26.076Z,2.03
2023-04-15T09:40:38.610Z,2.72
2023-04-15T09:45:48.216Z,2.70
2023-04-15T09:50:53.934Z,1.95
2023-04-15T09:55:59.221Z,2.20
2023-04-15T10:01:05.597Z,2.38
2023-04-15T10:06:10.188Z,2.47
2023-04-15T10:11:14.426Z,2.50
2023-04-15T10:16:20.463Z,2.47
2023-04-15T10:21:25.026Z,2.08
2023-04-15T10:26:29.554Z,2.75
2023-04-15T10:31:33.802Z,2.10
2023-04-15T10:36:38.066Z,2.45
2023-04-15T10:41:42.208Z,2.28
2023-04-15T10:46:47.004Z,2.00
2023-04-15T10:52:00.154Z,3.20
2023-04-15T10:57:05.223Z,2.55
2023-04-15T11:02:09.155Z,3.60
2023-04-15T11:07:13.215Z,2.55
2023-04-15T11:12:17.082Z,2.25
2023-04-15T11:17:29.022Z,3.13
2023-04-15T11:22:33.135Z,3.13
2023-04-15T11:27:38.227Z,2.30
2023-04-15T11:32:45.226Z,1.80
2023-04-15T11:37:50.063Z,2.20
2023-04-15T11:43:06.190Z,2.58
2023-04-15T11:53:14.644Z,2.13
2023-04-15T11:58:24.769Z,2.28
2023-04-15T12:03:27.868Z,2.97
2023-04-15T12:08:49.386Z,2.00
2023-04-15T12:13:54.447Z,3.17
2023-04-15T12:18:59.329Z,3.55
2023-04-15T12:24:03.774Z,2.30
2023-04-15T12:29:08.685Z,2.70
2023-04-15T12:34:11.912Z,2.60
2023-04-15T12:39:14.894Z,2.17
2023-04-15T12:44:17.932Z,3.10
2023-04-15T12:49:23.745Z,3.03
2023-04-15T12:54:27.509Z,2.00
2023-04-15T12:59:30.373Z,4.38
2023-04-15T13:04:33.487Z,1.90
2023-04-15T13:09:36.540Z,2.13
2023-04-15T13:14:39.318Z,1.98
2023-04-15T13:19:41.971Z,3.10
2023-04-15T13:24:44.676Z,3.13
2023-04-15T13:29:47.570Z,2.08
2023-04-15T13:34:50.463Z,2.08
2023-04-15T13:39:53.168Z,2.10
2023-04-15T13:44:55.954Z,1.80
2023-04-15T13:49:58.952Z,2.22
2023-04-15T13:55:19.692Z,1.95
2023-04-15T14:00:24.120Z,2.20
2023-04-15T14:05:27.071Z,2.95
2023-04-15T14:10:29.810Z,1.98
2023-04-15T14:15:32.685Z,2.65
2023-04-15T14:20:35.788Z,4.03
2023-04-15T14:25:39.634Z,2.78
2023-04-15T14:30:42.374Z,2.20
2023-04-15T14:35:45.371Z,2.10
2023-04-15T14:40:48.197Z,1.80
2023-04-15T14:45:51.985Z,2.25
2023-04-15T14:50:55.130Z,1.80
2023-04-15T14:55:58.004Z,2.30
2023-04-15T15:01:00.783Z,1.83
2023-04-15T15:06:04.082Z,2.28
2023-04-15T15:11:06.791Z,2.13
2023-04-15T15:16:10.598Z,2.55
2023-04-15T15:21:13.988Z,3.70
2023-04-15T15:26:16.740Z,2.78
2023-04-15T15:31:19.818Z,3.53
2023-04-15T15:36:22.857Z,3.55
2023-04-15T15:41:26.250Z,3.00
2023-04-15T15:46:31.537Z,3.08
2023-04-15T15:51:34.489Z,2.33
2023-04-15T15:56:38.795Z,2.80
2023-04-15T16:01:41.747Z,2.92
2023-04-15T16:06:47.549Z,2.47
2023-04-15T16:11:50.725Z,3.03
2023-04-15T16:16:54.127Z,2.78
2023-04-15T16:21:56.947Z,2.90
2023-04-15T16:26:59.849Z,2.72
2023-04-15T16:32:02.611Z,3.17
2023-04-15T16:37:05.778Z,3.00
2023-04-15T16:42:08.519Z,5.05
2023-04-15T16:47:12.299Z,3.10
2023-04-15T16:52:15.009Z,5.50
2023-04-15T16:57:18.286Z,5.25
2023-04-15T17:02:21.144Z,6.90
2023-04-15T17:07:23.775Z,5.30
2023-04-15T17:12:26.629Z,4.38
2023-04-15T17:17:29.354Z,4.85
2023-04-15T17:22:32.260Z,4.20
2023-04-15T17:27:36.297Z,4.35
2023-04-15T17:32:47.998Z,5.72
2023-04-15T17:38:10.963Z,5.53
2023-04-15T17:43:33.776Z,5.20
2023-04-15T17:48:56.480Z,4.78
2023-04-15T17:54:18.907Z,2.17
2023-04-15T17:59:44.898Z,2.03
2023-04-15T18:05:07.844Z,2.25
2023-04-15T18:10:30.750Z,3.15
2023-04-15T18:15:53.638Z,3.60
2023-04-15T18:21:16.404Z,2.45
2023-04-15T18:26:19.055Z,3.28
2023-04-15T18:31:22.066Z,2.67
2023-04-15T18:36:25.144Z,2.58
2023-04-15T18:41:28.985Z,2.58
2023-04-15T18:46:31.819Z,3.25
2023-04-15T18:51:34.510Z,2.78
2023-04-15T18:56:37.030Z,2.75
2023-04-15T19:01:39.749Z,2.63
2023-04-15T19:06:42.524Z,4.05
2023-04-15T19:11:45.437Z,2.75
2023-04-15T19:16:48.274Z,3.33
2023-04-15T19:21:51.247Z,3.65
2023-04-15T19:26:54.306Z,3.33
2023-04-15T19:31:57.000Z,3.83
2023-04-15T19:36:59.522Z,3.47
2023-04-15T19:42:03.019Z,3.40
2023-04-15T19:47:05.908Z,3.80
2023-04-15T19:52:08.845Z,2.65
2023-04-15T19:57:11.759Z,2.88
2023-04-15T20:02:14.689Z,2.90
2023-04-15T20:07:17.572Z,3.30
2023-04-15T20:12:50.711Z,3.88
2023-04-15T20:17:43.616Z,3.28
2023-04-15T20:22:46.426Z,3.30
2023-04-15T20:27:49.269Z,2.28
2023-04-15T20:32:52.053Z,2.33
2023-04-15T20:37:54.812Z,2.38
2023-04-15T20:42:57.513Z,1.88
2023-04-15T20:48:00.338Z,2.47
2023-04-15T20:53:05.207Z,2.28
2023-04-15T21:03:12.272Z,2.08
2023-04-15T21:13:18.019Z,2.05
2023-04-15T21:18:21.666Z,2.15
2023-04-15T21:23:24.394Z,2.45
2023-04-15T21:28:28.480Z,2.45
2023-04-15T21:33:31.495Z,2.97
2023-04-15T21:38:34.682Z,3.55
2023-04-15T21:43:37.786Z,4.07
2023-04-15T21:48:40.744Z,5.05
2023-04-15T21:53:43.822Z,5.10
2023-04-15T21:58:46.716Z,4.88
2023-04-15T22:03:49.859Z,4.80
2023-04-15T22:08:57.452Z,4.68
2023-04-15T22:14:01.024Z,7.32
2023-04-15T22:19:04.060Z,5.82
2023-04-15T22:24:38.044Z,5.32
2023-04-15T22:29:30.724Z,5.30
2023-04-15T22:34:33.416Z,4.40
2023-04-15T22:39:36.729Z,5.38
2023-04-15T22:44:39.606Z,4.57
2023-04-15T22:49:42.547Z,4.00
2023-04-15T22:54:45.284Z,3.83
2023-04-15T22:59:47.913Z,3.33
2023-04-15T23:04:50.747Z,3.55
2023-04-15T23:09:53.625Z,4.45
2023-04-15T23:14:56.417Z,3.95
2023-04-15T23:19:59.012Z,3.33
2023-04-15T23:25:01.981Z,3.95
2023-04-15T23:30:06.147Z,3.92
2023-04-15T23:35:09.237Z,3.90
2023-04-15T23:40:12.870Z,3.75
2023-04-15T23:45:15.835Z,3.90
2023-04-15T23:50:18.535Z,4.10
2023-04-15T23:55:21.486Z,4.30
